sensor_id;sensor_type;location;lat;lon;timestamp;P1;durP1;ratioP1;P2;durP2;ratioP2
38479;SDS011;62333;51.980;5.934;2023-11-21T00:00:46;10.02;;;6.18;;
38479;SDS011;62333;51.980;5.934;2023-11-21T00:03:12;10.38;;;6.60;;
38479;SDS011;62333;51.980;5.934;2023-11-21T00:05:40;11.75;;;7.88;;
38479;SDS011;62333;51.980;5.934;2023-11-21T00:08:09;12.07;;;7.50;;
38479;SDS011;62333;51.980;5.934;2023-11-21T00:10:35;12.55;;;7.25;;
38479;SDS011;62333;51.980;5.934;2023-11-21T00:13:03;11.98;;;7.15;;
38479;SDS011;62333;51.980;5.934;2023-11-21T00:15:29;11.52;;;7.72;;
38479;SDS011;62333;51.980;5.934;2023-11-21T00:17:55;13.52;;;7.03;;
38479;SDS011;62333;51.980;5.934;2023-11-21T00:20:20;10.40;;;7.10;;
38479;SDS011;62333;51.980;5.934;2023-11-21T00:22:46;11.88;;;7.43;;
38479;SDS011;62333;51.980;5.934;2023-11-21T00:25:12;12.30;;;7.15;;
38479;SDS011;62333;51.980;5.934;2023-11-21T00:27:40;14.85;;;7.40;;
38479;SDS011;62333;51.980;5.934;2023-11-21T00:30:06;14.57;;;9.00;;
38479;SDS011;62333;51.980;5.934;2023-11-21T00:32:33;12.80;;;7.55;;
38479;SDS011;62333;51.980;5.934;2023-11-21T00:35:02;11.35;;;7.53;;
38479;SDS011;62333;51.980;5.934;2023-11-21T00:37:28;12.75;;;7.35;;
38479;SDS011;62333;51.980;5.934;2023-11-21T00:39:53;12.45;;;6.68;;
38479;SDS011;62333;51.980;5.934;2023-11-21T00:42:19;13.32;;;8.77;;
38479;SDS011;62333;51.980;5.934;2023-11-21T00:44:46;13.20;;;7.75;;
38479;SDS011;62333;51.980;5.934;2023-11-21T00:47:12;12.13;;;7.53;;
38479;SDS011;62333;51.980;5.934;2023-11-21T00:49:37;11.63;;;6.80;;
38479;SDS011;62333;51.980;5.934;2023-11-21T00:52:04;12.57;;;7.20;;
38479;SDS011;62333;51.980;5.934;2023-11-21T00:54:30;14.48;;;7.53;;
38479;SDS011;62333;51.980;5.934;2023-11-21T00:56:55;11.82;;;6.95;;
38479;SDS011;62333;51.980;5.934;2023-11-21T00:59:21;12.82;;;8.00;;
38479;SDS011;62333;51.980;5.934;2023-11-21T01:01:48;11.90;;;6.90;;
38479;SDS011;62333;51.980;5.934;2023-11-21T01:04:14;12.00;;;7.40;;
38479;SDS011;62333;51.980;5.934;2023-11-21T01:06:39;12.77;;;7.60;;
38479;SDS011;62333;51.980;5.934;2023-11-21T01:09:05;16.63;;;7.55;;
38479;SDS011;62333;51.980;5.934;2023-11-21T01:11:36;13.02;;;9.25;;
38479;SDS011;62333;51.980;5.934;2023-11-21T01:14:03;14.43;;;7.78;;
38479;SDS011;62333;51.980;5.934;2023-11-21T01:16:29;13.00;;;6.68;;
38479;SDS011;62333;51.980;5.934;2023-11-21T01:18:57;12.38;;;6.88;;
38479;SDS011;62333;51.980;5.934;2023-11-21T01:21:24;13.82;;;8.25;;
38479;SDS011;62333;51.980;5.934;2023-11-21T01:23:50;14.40;;;7.82;;
38479;SDS011;62333;51.980;5.934;2023-11-21T01:26:15;13.70;;;8.23;;
38479;SDS011;62333;51.980;5.934;2023-11-21T01:28:41;13.00;;;9.38;;
38479;SDS011;62333;51.980;5.934;2023-11-21T01:31:07;14.20;;;7.45;;
38479;SDS011;62333;51.980;5.934;2023-11-21T01:33:32;15.80;;;8.52;;
38479;SDS011;62333;51.980;5.934;2023-11-21T01:35:58;15.35;;;8.80;;
38479;SDS011;62333;51.980;5.934;2023-11-21T01:38:25;15.82;;;9.38;;
38479;SDS011;62333;51.980;5.934;2023-11-21T01:40:50;15.10;;;8.98;;
38479;SDS011;62333;51.980;5.934;2023-11-21T01:43:16;14.85;;;8.50;;
38479;SDS011;62333;51.980;5.934;2023-11-21T01:45:42;15.02;;;9.25;;
38479;SDS011;62333;51.980;5.934;2023-11-21T01:48:10;15.40;;;8.88;;
38479;SDS011;62333;51.980;5.934;2023-11-21T01:50:37;14.23;;;9.18;;
38479;SDS011;62333;51.980;5.934;2023-11-21T01:53:03;15.00;;;8.30;;
38479;SDS011;62333;51.980;5.934;2023-11-21T01:55:29;20.42;;;9.70;;
38479;SDS011;62333;51.980;5.934;2023-11-21T01:57:55;14.82;;;9.20;;
38479;SDS011;62333;51.980;5.934;2023-11-21T02:00:22;15.50;;;8.55;;
38479;SDS011;62333;51.980;5.934;2023-11-21T02:02:48;19.23;;;10.02;;
38479;SDS011;62333;51.980;5.934;2023-11-21T02:05:14;15.68;;;9.55;;
38479;SDS011;62333;51.980;5.934;2023-11-21T02:07:43;16.38;;;9.93;;
38479;SDS011;62333;51.980;5.934;2023-11-21T02:10:09;17.95;;;9.77;;
38479;SDS011;62333;51.980;5.934;2023-11-21T02:12:39;15.85;;;9.73;;
38479;SDS011;62333;51.980;5.934;2023-11-21T02:15:12;13.95;;;8.70;;
38479;SDS011;62333;51.980;5.934;2023-11-21T02:17:45;22.27;;;11.38;;
38479;SDS011;62333;51.980;5.934;2023-11-21T02:20:16;18.23;;;9.18;;
38479;SDS011;62333;51.980;5.934;2023-11-21T02:22:43;16.50;;;8.05;;
38479;SDS011;62333;51.980;5.934;2023-11-21T02:25:14;20.35;;;9.98;;
38479;SDS011;62333;51.980;5.934;2023-11-21T02:27:39;24.63;;;11.07;;
38479;SDS011;62333;51.980;5.934;2023-11-21T02:30:05;17.55;;;9.75;;
38479;SDS011;62333;51.980;5.934;2023-11-21T02:32:33;17.95;;;10.55;;
38479;SDS011;62333;51.980;5.934;2023-11-21T02:34:59;18.70;;;10.80;;
38479;SDS011;62333;51.980;5.934;2023-11-21T02:37:26;16.27;;;9.60;;
38479;SDS011;62333;51.980;5.934;2023-11-21T02:39:52;18.88;;;10.80;;
38479;SDS011;62333;51.980;5.934;2023-11-21T02:42:18;18.02;;;10.13;;
38479;SDS011;62333;51.980;5.934;2023-11-21T02:44:43;25.55;;;9.45;;
38479;SDS011;62333;51.980;5.934;2023-11-21T02:47:09;21.45;;;10.68;;
38479;SDS011;62333;51.980;5.934;2023-11-21T02:49:35;18.67;;;10.27;;
38479;SDS011;62333;51.980;5.934;2023-11-21T02:52:01;16.88;;;10.63;;
38479;SDS011;62333;51.980;5.934;2023-11-21T02:54:27;19.70;;;9.30;;
38479;SDS011;62333;51.980;5.934;2023-11-21T02:56:52;18.02;;;10.52;;
38479;SDS011;62333;51.980;5.934;2023-11-21T02:59:18;20.17;;;11.38;;
38479;SDS011;62333;51.980;5.934;2023-11-21T03:01:44;17.00;;;9.63;;
38479;SDS011;62333;51.980;5.934;2023-11-21T03:04:11;21.58;;;12.32;;
38479;SDS011;62333;51.980;5.934;2023-11-21T03:06:43;24.17;;;10.60;;
38479;SDS011;62333;51.980;5.934;2023-11-21T03:09:09;26.20;;;13.35;;
38479;SDS011;62333;51.980;5.934;2023-11-21T03:11:37;19.83;;;9.88;;
38479;SDS011;62333;51.980;5.934;2023-11-21T03:14:03;15.40;;;9.32;;
38479;SDS011;62333;51.980;5.934;2023-11-21T03:16:28;25.17;;;9.70;;
38479;SDS011;62333;51.980;5.934;2023-11-21T03:18:54;18.15;;;10.20;;
38479;SDS011;62333;51.980;5.934;2023-11-21T03:21:20;16.75;;;10.55;;
38479;SDS011;62333;51.980;5.934;2023-11-21T03:23:45;15.90;;;9.18;;
38479;SDS011;62333;51.980;5.934;2023-11-21T03:26:11;16.50;;;10.68;;
38479;SDS011;62333;51.980;5.934;2023-11-21T03:28:38;17.48;;;9.52;;
38479;SDS011;62333;51.980;5.934;2023-11-21T03:31:04;16.25;;;9.10;;
38479;SDS011;62333;51.980;5.934;2023-11-21T03:33:31;15.27;;;10.75;;
38479;SDS011;62333;51.980;5.934;2023-11-21T03:35:57;17.90;;;8.93;;
38479;SDS011;62333;51.980;5.934;2023-11-21T03:38:23;16.13;;;9.38;;
38479;SDS011;62333;51.980;5.934;2023-11-21T03:40:48;13.48;;;9.43;;
38479;SDS011;62333;51.980;5.934;2023-11-21T03:43:15;12.15;;;8.05;;
38479;SDS011;62333;51.980;5.934;2023-11-21T03:45:41;12.40;;;8.13;;
38479;SDS011;62333;51.980;5.934;2023-11-21T03:48:07;13.38;;;8.20;;
38479;SDS011;62333;51.980;5.934;2023-11-21T03:50:33;16.83;;;8.45;;
38479;SDS011;62333;51.980;5.934;2023-11-21T03:52:59;12.27;;;7.88;;
38479;SDS011;62333;51.980;5.934;2023-11-21T03:55:25;11.90;;;7.80;;
38479;SDS011;62333;51.980;5.934;2023-11-21T03:57:51;10.85;;;7.30;;
38479;SDS011;62333;51.980;5.934;2023-11-21T04:00:17;12.57;;;7.95;;
38479;SDS011;62333;51.980;5.934;2023-11-21T04:02:45;12.98;;;7.28;;
38479;SDS011;62333;51.980;5.934;2023-11-21T04:05:11;13.50;;;7.85;;
38479;SDS011;62333;51.980;5.934;2023-11-21T04:07:37;13.90;;;8.57;;
38479;SDS011;62333;51.980;5.934;2023-11-21T04:10:04;12.57;;;8.18;;
38479;SDS011;62333;51.980;5.934;2023-11-21T04:12:33;12.85;;;8.18;;
38479;SDS011;62333;51.980;5.934;2023-11-21T04:14:58;14.38;;;8.13;;
38479;SDS011;62333;51.980;5.934;2023-11-21T04:17:24;13.93;;;8.05;;
38479;SDS011;62333;51.980;5.934;2023-11-21T04:19:49;13.43;;;7.95;;
38479;SDS011;62333;51.980;5.934;2023-11-21T04:22:15;14.73;;;8.57;;
38479;SDS011;62333;51.980;5.934;2023-11-21T04:24:41;15.77;;;8.32;;
38479;SDS011;62333;51.980;5.934;2023-11-21T04:27:06;13.80;;;9.07;;
38479;SDS011;62333;51.980;5.934;2023-11-21T04:29:32;14.35;;;8.80;;
38479;SDS011;62333;51.980;5.934;2023-11-21T04:31:58;13.65;;;9.85;;
38479;SDS011;62333;51.980;5.934;2023-11-21T04:34:24;13.48;;;8.00;;
38479;SDS011;62333;51.980;5.934;2023-11-21T04:36:50;15.48;;;8.70;;
38479;SDS011;62333;51.980;5.934;2023-11-21T04:39:15;13.80;;;6.63;;
38479;SDS011;62333;51.980;5.934;2023-11-21T04:41:41;12.23;;;7.68;;
38479;SDS011;62333;51.980;5.934;2023-11-21T04:44:07;12.57;;;8.23;;
38479;SDS011;62333;51.980;5.934;2023-11-21T04:46:33;13.65;;;8.68;;
38479;SDS011;62333;51.980;5.934;2023-11-21T04:48:59;14.52;;;8.05;;
38479;SDS011;62333;51.980;5.934;2023-11-21T04:51:24;13.05;;;8.27;;
38479;SDS011;62333;51.980;5.934;2023-11-21T04:53:50;11.13;;;7.53;;
38479;SDS011;62333;51.980;5.934;2023-11-21T04:56:16;10.48;;;7.82;;
38479;SDS011;62333;51.980;5.934;2023-11-21T04:58:41;12.48;;;8.10;;
38479;SDS011;62333;51.980;5.934;2023-11-21T05:01:07;13.13;;;7.88;;
38479;SDS011;62333;51.980;5.934;2023-11-21T05:03:33;12.70;;;8.63;;
38479;SDS011;62333;51.980;5.934;2023-11-21T05:05:59;14.95;;;8.15;;
38479;SDS011;62333;51.980;5.934;2023-11-21T05:08:25;10.48;;;7.30;;
38479;SDS011;62333;51.980;5.934;2023-11-21T05:10:51;10.15;;;6.55;;
38479;SDS011;62333;51.980;5.934;2023-11-21T05:13:17;10.65;;;6.70;;
38479;SDS011;62333;51.980;5.934;2023-11-21T05:15:43;12.48;;;7.63;;
38479;SDS011;62333;51.980;5.934;2023-11-21T05:18:09;9.32;;;6.38;;
38479;SDS011;62333;51.980;5.934;2023-11-21T05:20:35;10.82;;;7.15;;
38479;SDS011;62333;51.980;5.934;2023-11-21T05:23:04;10.70;;;6.47;;
38479;SDS011;62333;51.980;5.934;2023-11-21T05:25:30;10.25;;;6.30;;
38479;SDS011;62333;51.980;5.934;2023-11-21T05:27:55;12.07;;;6.78;;
38479;SDS011;62333;51.980;5.934;2023-11-21T05:30:21;8.07;;;5.43;;
38479;SDS011;62333;51.980;5.934;2023-11-21T05:32:47;9.55;;;5.43;;
38479;SDS011;62333;51.980;5.934;2023-11-21T05:35:14;7.63;;;4.72;;
38479;SDS011;62333;51.980;5.934;2023-11-21T05:37:44;10.65;;;5.47;;
38479;SDS011;62333;51.980;5.934;2023-11-21T05:40:10;9.73;;;5.85;;
38479;SDS011;62333;51.980;5.934;2023-11-21T05:42:38;7.82;;;5.75;;
38479;SDS011;62333;51.980;5.934;2023-11-21T05:45:05;7.97;;;5.32;;
38479;SDS011;62333;51.980;5.934;2023-11-21T05:47:42;7.38;;;4.32;;
38479;SDS011;62333;51.980;5.934;2023-11-21T05:50:10;7.53;;;4.63;;
38479;SDS011;62333;51.980;5.934;2023-11-21T05:52:39;8.55;;;5.15;;
38479;SDS011;62333;51.980;5.934;2023-11-21T05:55:05;7.25;;;5.75;;
38479;SDS011;62333;51.980;5.934;2023-11-21T05:57:35;6.97;;;4.55;;
38479;SDS011;62333;51.980;5.934;2023-11-21T06:00:08;7.07;;;4.68;;
38479;SDS011;62333;51.980;5.934;2023-11-21T06:02:37;7.47;;;4.95;;
38479;SDS011;62333;51.980;5.934;2023-11-21T06:05:06;9.10;;;5.00;;
38479;SDS011;62333;51.980;5.934;2023-11-21T06:07:32;7.13;;;5.22;;
38479;SDS011;62333;51.980;5.934;2023-11-21T06:10:00;7.40;;;5.05;;
38479;SDS011;62333;51.980;5.934;2023-11-21T06:12:32;8.00;;;5.22;;
38479;SDS011;62333;51.980;5.934;2023-11-21T06:15:01;7.53;;;5.45;;
38479;SDS011;62333;51.980;5.934;2023-11-21T06:17:30;8.38;;;6.32;;
38479;SDS011;62333;51.980;5.934;2023-11-21T06:20:02;9.02;;;5.47;;
38479;SDS011;62333;51.980;5.934;2023-11-21T06:22:37;9.23;;;4.97;;
38479;SDS011;62333;51.980;5.934;2023-11-21T06:25:04;9.38;;;6.70;;
38479;SDS011;62333;51.980;5.934;2023-11-21T06:27:36;8.55;;;5.47;;
38479;SDS011;62333;51.980;5.934;2023-11-21T06:30:05;10.00;;;5.95;;
38479;SDS011;62333;51.980;5.934;2023-11-21T06:32:34;13.73;;;7.53;;
38479;SDS011;62333;51.980;5.934;2023-11-21T06:35:01;9.38;;;6.15;;
38479;SDS011;62333;51.980;5.934;2023-11-21T06:37:29;8.32;;;4.88;;
38479;SDS011;62333;51.980;5.934;2023-11-21T06:39:55;7.80;;;5.40;;
38479;SDS011;62333;51.980;5.934;2023-11-21T06:42:23;8.57;;;5.65;;
38479;SDS011;62333;51.980;5.934;2023-11-21T06:44:49;9.45;;;5.13;;
38479;SDS011;62333;51.980;5.934;2023-11-21T06:47:24;8.90;;;5.68;;
38479;SDS011;62333;51.980;5.934;2023-11-21T06:49:50;7.57;;;5.00;;
38479;SDS011;62333;51.980;5.934;2023-11-21T06:52:17;9.07;;;6.03;;
38479;SDS011;62333;51.980;5.934;2023-11-21T06:54:43;9.43;;;5.45;;
38479;SDS011;62333;51.980;5.934;2023-11-21T06:57:09;7.28;;;4.85;;
38479;SDS011;62333;51.980;5.934;2023-11-21T06:59:34;10.10;;;6.13;;
38479;SDS011;62333;51.980;5.934;2023-11-21T07:02:00;7.47;;;4.70;;
38479;SDS011;62333;51.980;5.934;2023-11-21T07:04:26;7.50;;;4.53;;
38479;SDS011;62333;51.980;5.934;2023-11-21T07:06:53;7.72;;;4.70;;
38479;SDS011;62333;51.980;5.934;2023-11-21T07:09:19;8.35;;;4.60;;
38479;SDS011;62333;51.980;5.934;2023-11-21T07:11:47;8.18;;;4.53;;
38479;SDS011;62333;51.980;5.934;2023-11-21T07:14:13;7.82;;;4.72;;
38479;SDS011;62333;51.980;5.934;2023-11-21T07:16:39;8.05;;;5.88;;
38479;SDS011;62333;51.980;5.934;2023-11-21T07:19:05;9.27;;;4.95;;
38479;SDS011;62333;51.980;5.934;2023-11-21T07:21:35;8.10;;;5.07;;
38479;SDS011;62333;51.980;5.934;2023-11-21T07:24:01;9.23;;;5.30;;
38479;SDS011;62333;51.980;5.934;2023-11-21T07:26:27;8.63;;;5.47;;
38479;SDS011;62333;51.980;5.934;2023-11-21T07:28:53;8.05;;;5.38;;
38479;SDS011;62333;51.980;5.934;2023-11-21T07:31:20;12.27;;;6.95;;
38479;SDS011;62333;51.980;5.934;2023-11-21T07:33:47;12.25;;;6.60;;
38479;SDS011;62333;51.980;5.934;2023-11-21T07:36:14;10.15;;;7.05;;
38479;SDS011;62333;51.980;5.934;2023-11-21T07:38:40;9.95;;;6.50;;
38479;SDS011;62333;51.980;5.934;2023-11-21T07:41:06;11.55;;;6.78;;
38479;SDS011;62333;51.980;5.934;2023-11-21T07:43:35;10.88;;;6.50;;
38479;SDS011;62333;51.980;5.934;2023-11-21T07:46:01;11.63;;;6.85;;
38479;SDS011;62333;51.980;5.934;2023-11-21T07:48:30;10.50;;;7.30;;
38479;SDS011;62333;51.980;5.934;2023-11-21T07:50:56;11.93;;;6.30;;
38479;SDS011;62333;51.980;5.934;2023-11-21T07:53:26;12.02;;;7.35;;
38479;SDS011;62333;51.980;5.934;2023-11-21T07:55:56;11.60;;;6.93;;
38479;SDS011;62333;51.980;5.934;2023-11-21T07:58:23;12.73;;;7.03;;
38479;SDS011;62333;51.980;5.934;2023-11-21T08:00:49;11.75;;;6.75;;
38479;SDS011;62333;51.980;5.934;2023-11-21T08:03:15;13.35;;;7.65;;
38479;SDS011;62333;51.980;5.934;2023-11-21T08:05:41;12.25;;;7.38;;
38479;SDS011;62333;51.980;5.934;2023-11-21T08:08:07;11.55;;;7.40;;
38479;SDS011;62333;51.980;5.934;2023-11-21T08:10:33;11.60;;;7.90;;
38479;SDS011;62333;51.980;5.934;2023-11-21T08:13:00;11.60;;;6.72;;
38479;SDS011;62333;51.980;5.934;2023-11-21T08:15:26;12.52;;;7.18;;
38479;SDS011;62333;51.980;5.934;2023-11-21T08:17:52;13.63;;;7.50;;
38479;SDS011;62333;51.980;5.934;2023-11-21T08:20:18;14.95;;;7.60;;
38479;SDS011;62333;51.980;5.934;2023-11-21T08:22:44;14.70;;;8.95;;
38479;SDS011;62333;51.980;5.934;2023-11-21T08:25:10;13.15;;;7.90;;
38479;SDS011;62333;51.980;5.934;2023-11-21T08:27:36;15.38;;;8.73;;
38479;SDS011;62333;51.980;5.934;2023-11-21T08:30:02;14.07;;;8.30;;
38479;SDS011;62333;51.980;5.934;2023-11-21T08:32:29;14.45;;;7.55;;
38479;SDS011;62333;51.980;5.934;2023-11-21T08:34:57;15.43;;;8.10;;
38479;SDS011;62333;51.980;5.934;2023-11-21T08:37:23;14.07;;;8.10;;
38479;SDS011;62333;51.980;5.934;2023-11-21T08:39:49;13.18;;;8.13;;
38479;SDS011;62333;51.980;5.934;2023-11-21T08:42:14;9.88;;;6.80;;
38479;SDS011;62333;51.980;5.934;2023-11-21T08:44:40;12.23;;;8.00;;
38479;SDS011;62333;51.980;5.934;2023-11-21T08:47:06;14.43;;;7.72;;
38479;SDS011;62333;51.980;5.934;2023-11-21T08:49:32;12.65;;;7.57;;
38479;SDS011;62333;51.980;5.934;2023-11-21T08:51:58;18.00;;;7.80;;
38479;SDS011;62333;51.980;5.934;2023-11-21T08:54:25;15.43;;;8.23;;
38479;SDS011;62333;51.980;5.934;2023-11-21T08:56:54;14.95;;;8.02;;
38479;SDS011;62333;51.980;5.934;2023-11-21T08:59:20;16.23;;;9.18;;
38479;SDS011;62333;51.980;5.934;2023-11-21T09:01:46;14.70;;;7.82;;
38479;SDS011;62333;51.980;5.934;2023-11-21T09:04:12;15.15;;;8.90;;
38479;SDS011;62333;51.980;5.934;2023-11-21T09:06:38;13.52;;;8.27;;
38479;SDS011;62333;51.980;5.934;2023-11-21T09:09:07;13.35;;;8.07;;
38479;SDS011;62333;51.980;5.934;2023-11-21T09:11:35;13.20;;;8.18;;
38479;SDS011;62333;51.980;5.934;2023-11-21T09:14:01;11.65;;;7.25;;
38479;SDS011;62333;51.980;5.934;2023-11-21T09:16:28;14.10;;;8.38;;
38479;SDS011;62333;51.980;5.934;2023-11-21T09:18:54;18.95;;;8.93;;
38479;SDS011;62333;51.980;5.934;2023-11-21T09:21:20;15.13;;;9.55;;
38479;SDS011;62333;51.980;5.934;2023-11-21T09:23:46;15.77;;;10.10;;
38479;SDS011;62333;51.980;5.934;2023-11-21T09:26:13;12.68;;;8.88;;
38479;SDS011;62333;51.980;5.934;2023-11-21T09:28:41;11.80;;;7.97;;
38479;SDS011;62333;51.980;5.934;2023-11-21T09:31:11;15.75;;;8.25;;
38479;SDS011;62333;51.980;5.934;2023-11-21T09:33:37;12.20;;;8.00;;
38479;SDS011;62333;51.980;5.934;2023-11-21T09:36:03;11.75;;;7.70;;
38479;SDS011;62333;51.980;5.934;2023-11-21T09:38:30;9.65;;;6.82;;
38479;SDS011;62333;51.980;5.934;2023-11-21T09:40:56;12.05;;;6.97;;
38479;SDS011;62333;51.980;5.934;2023-11-21T09:43:24;15.00;;;8.23;;
38479;SDS011;62333;51.980;5.934;2023-11-21T09:45:56;13.20;;;8.48;;
38479;SDS011;62333;51.980;5.934;2023-11-21T09:48:26;15.10;;;8.75;;
38479;SDS011;62333;51.980;5.934;2023-11-21T09:50:54;17.35;;;8.00;;
38479;SDS011;62333;51.980;5.934;2023-11-21T09:53:20;13.27;;;8.07;;
38479;SDS011;62333;51.980;5.934;2023-11-21T09:55:49;15.38;;;7.57;;
38479;SDS011;62333;51.980;5.934;2023-11-21T09:58:19;12.23;;;6.97;;
38479;SDS011;62333;51.980;5.934;2023-11-21T10:00:47;13.90;;;7.82;;
38479;SDS011;62333;51.980;5.934;2023-11-21T10:03:14;10.88;;;6.88;;
38479;SDS011;62333;51.980;5.934;2023-11-21T10:05:44;13.02;;;7.35;;
38479;SDS011;62333;51.980;5.934;2023-11-21T10:08:15;12.48;;;7.10;;
38479;SDS011;62333;51.980;5.934;2023-11-21T10:10:44;13.45;;;7.65;;
38479;SDS011;62333;51.980;5.934;2023-11-21T10:13:13;11.15;;;7.80;;
38479;SDS011;62333;51.980;5.934;2023-11-21T10:15:41;13.30;;;8.82;;
38479;SDS011;62333;51.980;5.934;2023-11-21T10:18:13;14.10;;;8.02;;
38479;SDS011;62333;51.980;5.934;2023-11-21T10:20:42;13.68;;;7.20;;
38479;SDS011;62333;51.980;5.934;2023-11-21T10:23:11;14.55;;;8.30;;
38479;SDS011;62333;51.980;5.934;2023-11-21T10:25:38;13.02;;;7.75;;
38479;SDS011;62333;51.980;5.934;2023-11-21T10:28:04;12.77;;;8.65;;
38479;SDS011;62333;51.980;5.934;2023-11-21T10:30:32;11.68;;;8.02;;
38479;SDS011;62333;51.980;5.934;2023-11-21T10:33:02;11.30;;;6.95;;
38479;SDS011;62333;51.980;5.934;2023-11-21T10:35:47;9.88;;;5.55;;
38479;SDS011;62333;51.980;5.934;2023-11-21T10:38:19;11.90;;;6.40;;
38479;SDS011;62333;51.980;5.934;2023-11-21T10:40:49;9.40;;;5.65;;
38479;SDS011;62333;51.980;5.934;2023-11-21T10:43:15;8.32;;;4.93;;
38479;SDS011;62333;51.980;5.934;2023-11-21T10:45:42;8.88;;;5.75;;
38479;SDS011;62333;51.980;5.934;2023-11-21T10:48:14;8.48;;;5.20;;
38479;SDS011;62333;51.980;5.934;2023-11-21T10:50:40;7.70;;;5.13;;
38479;SDS011;62333;51.980;5.934;2023-11-21T10:53:06;8.13;;;4.70;;
38479;SDS011;62333;51.980;5.934;2023-11-21T10:55:33;8.77;;;5.13;;
38479;SDS011;62333;51.980;5.934;2023-11-21T10:58:09;8.82;;;5.22;;
38479;SDS011;62333;51.980;5.934;2023-11-21T11:00:38;7.50;;;5.35;;
38479;SDS011;62333;51.980;5.934;2023-11-21T11:03:05;7.70;;;4.47;;
38479;SDS011;62333;51.980;5.934;2023-11-21T11:05:38;8.45;;;4.25;;
38479;SDS011;62333;51.980;5.934;2023-11-21T11:08:05;12.02;;;5.30;;
38479;SDS011;62333;51.980;5.934;2023-11-21T11:10:34;8.75;;;4.38;;
38479;SDS011;62333;51.980;5.934;2023-11-21T11:13:01;10.05;;;5.20;;
38479;SDS011;62333;51.980;5.934;2023-11-21T11:15:27;7.60;;;5.05;;
38479;SDS011;62333;51.980;5.934;2023-11-21T11:17:54;7.95;;;5.75;;
38479;SDS011;62333;51.980;5.934;2023-11-21T11:20:24;8.63;;;4.38;;
38479;SDS011;62333;51.980;5.934;2023-11-21T11:25:33;6.18;;;4.03;;
38479;SDS011;62333;51.980;5.934;2023-11-21T11:28:22;6.55;;;3.67;;
38479;SDS011;62333;51.980;5.934;2023-11-21T11:31:13;7.40;;;3.67;;
38479;SDS011;62333;51.980;5.934;2023-11-21T11:33:53;5.18;;;3.00;;
38479;SDS011;62333;51.980;5.934;2023-11-21T11:39:03;6.25;;;4.43;;
38479;SDS011;62333;51.980;5.934;2023-11-21T11:41:52;6.93;;;3.70;;
38479;SDS011;62333;51.980;5.934;2023-11-21T11:47:19;6.75;;;3.53;;
38479;SDS011;62333;51.980;5.934;2023-11-21T11:52:32;8.07;;;4.50;;
38479;SDS011;62333;51.980;5.934;2023-11-21T11:54:59;4.97;;;2.90;;
38479;SDS011;62333;51.980;5.934;2023-11-21T11:57:27;5.60;;;2.60;;
38479;SDS011;62333;51.980;5.934;2023-11-21T12:00:16;5.50;;;2.13;;
38479;SDS011;62333;51.980;5.934;2023-11-21T12:02:57;3.92;;;2.38;;
38479;SDS011;62333;51.980;5.934;2023-11-21T12:05:27;5.03;;;2.47;;
38479;SDS011;62333;51.980;5.934;2023-11-21T12:07:53;3.72;;;1.63;;
38479;SDS011;62333;51.980;5.934;2023-11-21T12:10:23;4.78;;;2.70;;
38479;SDS011;62333;51.980;5.934;2023-11-21T12:12:54;5.00;;;2.70;;
38479;SDS011;62333;51.980;5.934;2023-11-21T12:15:21;4.60;;;2.67;;
38479;SDS011;62333;51.980;5.934;2023-11-21T12:17:48;5.35;;;2.78;;
38479;SDS011;62333;51.980;5.934;2023-11-21T12:20:19;4.57;;;2.15;;
38479;SDS011;62333;51.980;5.934;2023-11-21T12:22:50;5.55;;;3.13;;
38479;SDS011;62333;51.980;5.934;2023-11-21T12:25:17;6.32;;;2.30;;
38479;SDS011;62333;51.980;5.934;2023-11-21T12:27:53;4.97;;;2.60;;
38479;SDS011;62333;51.980;5.934;2023-11-21T12:30:20;5.22;;;2.72;;
38479;SDS011;62333;51.980;5.934;2023-11-21T12:32:53;5.38;;;2.75;;
38479;SDS011;62333;51.980;5.934;2023-11-21T12:35:26;5.13;;;2.58;;
38479;SDS011;62333;51.980;5.934;2023-11-21T12:37:56;4.37;;;1.93;;
38479;SDS011;62333;51.980;5.934;2023-11-21T12:40:22;4.68;;;2.20;;
38479;SDS011;62333;51.980;5.934;2023-11-21T12:42:51;4.07;;;2.35;;
38479;SDS011;62333;51.980;5.934;2023-11-21T12:45:25;5.40;;;2.92;;
38479;SDS011;62333;51.980;5.934;2023-11-21T12:47:54;4.57;;;2.70;;
38479;SDS011;62333;51.980;5.934;2023-11-21T12:50:33;6.88;;;3.70;;
38479;SDS011;62333;51.980;5.934;2023-11-21T12:53:05;4.70;;;2.95;;
38479;SDS011;62333;51.980;5.934;2023-11-21T12:55:37;5.93;;;3.33;;
38479;SDS011;62333;51.980;5.934;2023-11-21T12:58:05;6.97;;;3.60;;
38479;SDS011;62333;51.980;5.934;2023-11-21T13:00:35;5.22;;;3.25;;
38479;SDS011;62333;51.980;5.934;2023-11-21T13:03:03;8.48;;;5.78;;
38479;SDS011;62333;51.980;5.934;2023-11-21T13:05:34;12.57;;;7.15;;
38479;SDS011;62333;51.980;5.934;2023-11-21T13:08:04;14.32;;;8.13;;
38479;SDS011;62333;51.980;5.934;2023-11-21T13:10:35;10.73;;;7.05;;
38479;SDS011;62333;51.980;5.934;2023-11-21T13:13:02;11.20;;;7.13;;
38479;SDS011;62333;51.980;5.934;2023-11-21T13:15:33;11.70;;;6.45;;
38479;SDS011;62333;51.980;5.934;2023-11-21T13:18:01;11.15;;;7.20;;
38479;SDS011;62333;51.980;5.934;2023-11-21T13:20:27;9.38;;;5.95;;
38479;SDS011;62333;51.980;5.934;2023-11-21T13:22:55;10.95;;;6.00;;
38479;SDS011;62333;51.980;5.934;2023-11-21T13:25:26;14.85;;;8.35;;
38479;SDS011;62333;51.980;5.934;2023-11-21T13:27:55;10.35;;;7.32;;
38479;SDS011;62333;51.980;5.934;2023-11-21T13:30:22;9.82;;;5.95;;
38479;SDS011;62333;51.980;5.934;2023-11-21T13:32:52;11.45;;;6.57;;
38479;SDS011;62333;51.980;5.934;2023-11-21T13:35:22;10.80;;;6.40;;
38479;SDS011;62333;51.980;5.934;2023-11-21T13:37:56;10.10;;;6.85;;
38479;SDS011;62333;51.980;5.934;2023-11-21T13:40:25;11.48;;;6.43;;
38479;SDS011;62333;51.980;5.934;2023-11-21T13:42:54;13.18;;;6.88;;
38479;SDS011;62333;51.980;5.934;2023-11-21T13:45:24;10.00;;;6.03;;
38479;SDS011;62333;51.980;5.934;2023-11-21T13:47:51;9.77;;;6.20;;
38479;SDS011;62333;51.980;5.934;2023-11-21T13:50:20;8.75;;;4.57;;
38479;SDS011;62333;51.980;5.934;2023-11-21T13:52:51;10.95;;;5.72;;
38479;SDS011;62333;51.980;5.934;2023-11-21T13:55:18;12.30;;;7.13;;
38479;SDS011;62333;51.980;5.934;2023-11-21T13:57:44;9.20;;;4.97;;
38479;SDS011;62333;51.980;5.934;2023-11-21T14:00:14;8.93;;;5.43;;
38479;SDS011;62333;51.980;5.934;2023-11-21T14:03:21;13.55;;;7.90;;
38479;SDS011;62333;51.980;5.934;2023-11-21T14:05:48;13.80;;;8.00;;
38479;SDS011;62333;51.980;5.934;2023-11-21T14:08:22;12.52;;;7.82;;
38479;SDS011;62333;51.980;5.934;2023-11-21T14:10:53;11.00;;;5.65;;
38479;SDS011;62333;51.980;5.934;2023-11-21T14:13:31;7.05;;;4.47;;
38479;SDS011;62333;51.980;5.934;2023-11-21T14:15:57;10.98;;;5.97;;
38479;SDS011;62333;51.980;5.934;2023-11-21T14:18:25;7.78;;;4.45;;
38479;SDS011;62333;51.980;5.934;2023-11-21T14:20:56;6.50;;;2.92;;
38479;SDS011;62333;51.980;5.934;2023-11-21T14:23:22;5.93;;;3.10;;
38479;SDS011;62333;51.980;5.934;2023-11-21T14:25:48;5.68;;;3.20;;
38479;SDS011;62333;51.980;5.934;2023-11-21T14:28:17;6.45;;;3.50;;
38479;SDS011;62333;51.980;5.934;2023-11-21T14:30:44;6.57;;;3.63;;
38479;SDS011;62333;51.980;5.934;2023-11-21T14:33:13;9.93;;;5.00;;
38479;SDS011;62333;51.980;5.934;2023-11-21T14:35:38;7.43;;;4.28;;
38479;SDS011;62333;51.980;5.934;2023-11-21T14:38:04;6.80;;;3.85;;
38479;SDS011;62333;51.980;5.934;2023-11-21T14:40:31;6.53;;;3.88;;
38479;SDS011;62333;51.980;5.934;2023-11-21T14:43:01;8.18;;;4.13;;
38479;SDS011;62333;51.980;5.934;2023-11-21T14:45:30;6.22;;;3.60;;
38479;SDS011;62333;51.980;5.934;2023-11-21T14:47:56;6.40;;;3.58;;
38479;SDS011;62333;51.980;5.934;2023-11-21T14:50:35;6.85;;;3.97;;
38479;SDS011;62333;51.980;5.934;2023-11-21T14:53:04;4.35;;;2.60;;